Time;durP1;ratioP1;P1;durP2;ratioP2;P2;SDS_P1;SDS_P2;PMS_P1;PMS_P2;Temp;Humidity;BMP_temperature;BMP_pressure;BME280_temperature;BME280_humidity;BME280_pressure;Samples;Min_cycle;Max_cycle;Signal;HPM_P1;HPM_P2
2021/11/01 00:00:48;;;;;;;4.27;3.77;;;14.00;82.70;;;;;;5076234;28;20267;-71
2021/11/01 00:03:16;;;;;;;7.10;5.17;;;14.00;82.90;;;;;;5060421;28;20226;-72
2021/11/01 00:05:47;;;;;;;5.77;4.20;;;14.00;83.10;;;;;;5057001;28;20237;-72
2021/11/01 00:08:14;;;;;;;6.80;5.97;;;13.90;83.20;;;;;;5060579;28;20661;-72
2021/11/01 00:10:43;;;;;;;9.37;5.27;;;13.90;83.40;;;;;;5077294;28;20646;-72
2021/11/01 00:13:10;;;;;;;11.57;6.07;;;13.90;83.60;;;;;;5059419;28;20239;-72
2021/11/01 00:15:38;;;;;;;8.50;5.80;;;13.90;83.70;;;;;;5076837;28;20249;-71
2021/11/01 00:18:05;;;;;;;4.80;3.43;;;13.90;83.90;;;;;;5059711;28;20213;-71
2021/11/01 00:20:33;;;;;;;3.40;3.10;;;13.90;84.00;;;;;;5073075;28;20253;-72
2021/11/01 00:23:00;;;;;;;5.57;4.57;;;13.90;84.20;;;;;;5077465;28;20205;-73
2021/11/01 00:25:27;;;;;;;9.53;5.73;;;13.90;84.30;;;;;;5059103;28;20237;-73
2021/11/01 00:27:55;;;;;;;5.93;4.57;;;13.80;84.40;;;;;;5059135;28;20228;-71
2021/11/01 00:30:23;;;;;;;5.57;4.77;;;13.80;84.50;;;;;;5058696;28;20228;-73
2021/11/01 00:32:51;;;;;;;6.47;4.30;;;13.80;84.60;;;;;;5059013;28;20288;-72
2021/11/01 00:35:18;;;;;;;7.37;3.77;;;13.80;84.70;;;;;;5058834;28;20681;-72
2021/11/01 00:37:47;;;;;;;14.87;6.77;;;13.80;84.80;;;;;;5052641;28;20249;-72
2021/11/01 00:40:14;;;;;;;10.17;5.70;;;13.80;84.90;;;;;;5059376;28;20213;-72
2021/11/01 00:42:41;;;;;;;10.63;8.83;;;13.90;85.10;;;;;;5076641;28;20642;-72
2021/11/01 00:45:09;;;;;;;8.63;4.03;;;13.80;85.20;;;;;;5076372;28;20245;-72
2021/11/01 00:47:36;;;;;;;12.77;4.93;;;13.80;85.30;;;;;;5074004;28;20242;-72
2021/11/01 00:50:04;;;;;;;4.93;4.50;;;13.80;85.30;;;;;;5076131;28;20224;-73
2021/11/01 00:52:32;;;;;;;6.30;5.37;;;13.80;85.30;;;;;;5058895;28;20210;-72
2021/11/01 00:55:02;;;;;;;5.60;4.80;;;13.80;85.30;;;;;;5075839;28;20222;-72
2021/11/01 00:57:30;;;;;;;7.57;5.87;;;13.80;85.30;;;;;;5075568;28;20210;-75
2021/11/01 00:59:59;;;;;;;20.33;4.20;;;13.90;85.30;;;;;;5059357;28;20227;-72
2021/11/01 01:02:32;;;;;;;17.43;4.83;;;13.90;85.30;;;;;;5075654;28;20224;-72
2021/11/01 01:05:03;;;;;;;18.30;5.63;;;13.90;85.30;;;;;;5071763;28;20675;-72
2021/11/01 01:07:30;;;;;;;9.97;4.17;;;13.90;85.30;;;;;;5075813;28;20631;-72
2021/11/01 01:09:57;;;;;;;16.07;5.37;;;13.80;85.40;;;;;;5059196;28;20658;-71
2021/11/01 01:12:25;;;;;;;4.47;4.23;;;13.90;85.50;;;;;;5075266;28;20216;-71
2021/11/01 01:15:03;;;;;;;6.27;3.37;;;13.80;85.50;;;;;;5058931;28;20224;-72
2021/11/01 01:17:31;;;;;;;13.37;5.83;;;13.80;85.60;;;;;;5073500;28;20614;-71
2021/11/01 01:20:05;;;;;;;17.13;7.90;;;13.80;85.60;;;;;;5058073;28;20245;-74
2021/11/01 01:22:34;;;;;;;8.40;7.60;;;13.80;85.70;;;;;;5057878;28;20305;-72
2021/11/01 01:25:29;;;;;;;6.93;5.37;;;13.90;85.80;;;;;;5059268;28;20261;-72
2021/11/01 01:27:54;;;;;;;8.17;6.10;;;13.90;85.90;;;;;;5071408;28;20209;-72
2021/11/01 01:30:23;;;;;;;12.73;5.80;;;13.80;85.90;;;;;;5058955;28;20606;-74
2021/11/01 01:32:50;;;;;;;10.93;5.00;;;13.80;86.10;;;;;;5076364;28;20214;-72
2021/11/01 01:35:19;;;;;;;7.53;5.60;;;13.80;86.20;;;;;;5059438;28;20689;-74
2021/11/01 01:37:47;;;;;;;7.20;4.40;;;13.80;86.30;;;;;;5059824;28;20223;-72
2021/11/01 01:40:16;;;;;;;10.10;7.50;;;13.80;86.40;;;;;;5058800;28;20595;-72
2021/11/01 01:42:44;;;;;;;5.60;4.07;;;13.80;86.50;;;;;;5051216;28;20209;-74
2021/11/01 01:45:13;;;;;;;10.57;7.80;;;13.80;86.60;;;;;;5059972;28;20292;-73
2021/11/01 01:47:42;;;;;;;12.77;7.37;;;13.80;86.70;;;;;;5061530;28;20263;-72
2021/11/01 01:50:12;;;;;;;11.10;5.80;;;13.80;86.80;;;;;;5062228;28;20233;-72
2021/11/01 01:52:41;;;;;;;2.90;2.63;;;13.70;86.80;;;;;;5062451;28;20252;-74
2021/11/01 01:55:13;;;;;;;11.97;7.10;;;13.70;86.90;;;;;;5058166;28;20221;-72
2021/11/01 01:57:40;;;;;;;3.73;3.43;;;13.70;87.00;;;;;;5076474;28;20217;-72
2021/11/01 02:00:22;;;;;;;11.20;4.73;;;13.70;87.10;;;;;;5059939;28;20221;-74
2021/11/01 02:02:50;;;;;;;4.10;3.80;;;13.70;87.20;;;;;;5055867;28;20226;-74
2021/11/01 02:05:17;;;;;;;18.63;6.53;;;13.70;87.20;;;;;;5059115;28;20239;-72
2021/11/01 02:08:05;;;;;;;9.93;5.77;;;13.70;87.30;;;;;;5059307;28;20228;-72
2021/11/01 02:10:41;;;;;;;20.50;6.27;;;13.70;87.40;;;;;;5053907;28;20217;-72
2021/11/01 02:13:18;;;;;;;12.60;6.47;;;13.70;87.40;;;;;;5058519;28;20296;-74
2021/11/01 02:16:05;;;;;;;10.00;6.60;;;13.70;87.50;;;;;;5072285;28;20292;-74
2021/11/01 02:18:35;;;;;;;15.03;6.53;;;13.60;87.60;;;;;;5072356;28;20217;-72
2021/11/01 02:21:03;;;;;;;4.93;4.33;;;13.60;87.60;;;;;;5058854;28;20635;-73
2021/11/01 02:23:35;;;;;;;12.80;5.63;;;13.60;87.70;;;;;;5058162;28;20643;-72
2021/11/01 02:26:04;;;;;;;10.33;8.00;;;13.60;87.70;;;;;;5075741;28;20436;-74
2021/11/01 02:28:35;;;;;;;9.30;6.23;;;13.60;87.80;;;;;;5076651;28;20210;-72
2021/11/01 02:31:05;;;;;;;5.63;5.10;;;13.60;87.80;;;;;;5054358;28;20221;-71
2021/11/01 02:33:33;;;;;;;7.73;6.30;;;13.60;87.80;;;;;;5073484;28;20558;-72
2021/11/01 02:36:01;;;;;;;14.87;5.60;;;13.60;87.90;;;;;;5073269;28;20209;-72
2021/11/01 02:38:30;;;;;;;5.83;4.97;;;13.60;88.00;;;;;;5074756;28;20309;-74
2021/11/01 02:41:03;;;;;;;4.93;3.97;;;13.60;88.10;;;;;;5057268;28;20224;-72
2021/11/01 02:43:31;;;;;;;9.97;4.57;;;13.60;88.10;;;;;;5071433;28;20210;-74
2021/11/01 02:45:59;;;;;;;4.90;4.50;;;13.60;88.10;;;;;;5073547;28;20262;-74
2021/11/01 02:48:27;;;;;;;11.63;5.07;;;13.60;88.20;;;;;;5056955;28;20233;-74
2021/11/01 02:50:54;;;;;;;4.97;3.57;;;13.60;88.90;;;;;;5057280;28;20291;-76
2021/11/01 02:53:22;;;;;;;7.30;6.63;;;13.60;88.40;;;;;;5073791;28;20270;-72
2021/11/01 02:55:49;;;;;;;10.40;7.27;;;13.60;88.40;;;;;;5070190;28;20291;-72
2021/11/01 02:58:17;;;;;;;9.90;4.53;;;13.60;88.50;;;;;;5074589;28;20221;-72
2021/11/01 03:00:45;;;;;;;11.47;6.57;;;13.60;88.60;;;;;;5057022;28;20225;-74
2021/11/01 03:03:13;;;;;;;12.70;4.97;;;13.60;88.70;;;;;;5074321;28;20267;-73
2021/11/01 03:05:40;;;;;;;8.07;5.63;;;13.60;88.80;;;;;;5074165;28;20241;-72
2021/11/01 03:08:08;;;;;;;6.70;4.63;;;13.60;88.90;;;;;;5056753;28;20213;-74
2021/11/01 03:10:36;;;;;;;15.27;7.87;;;13.60;88.90;;;;;;5074402;28;20217;-72
2021/11/01 03:13:04;;;;;;;6.57;5.83;;;13.60;89.00;;;;;;5055449;28;20220;-72
2021/11/01 03:15:31;;;;;;;4.07;3.50;;;13.60;89.70;;;;;;5077819;28;20237;-72
2021/11/01 03:18:05;;;;;;;10.47;5.73;;;13.60;89.00;;;;;;5078298;28;20232;-73
2021/11/01 03:20:41;;;;;;;13.70;6.77;;;13.50;89.10;;;;;;5059631;28;20210;-73
2021/11/01 03:23:22;;;;;;;6.93;6.27;;;13.50;89.80;;;;;;5056265;28;20300;-72
2021/11/01 03:25:56;;;;;;;7.80;5.20;;;13.60;89.20;;;;;;5059700;28;20233;-72
2021/11/01 03:28:25;;;;;;;4.70;4.40;;;13.60;89.10;;;;;;5074293;28;20544;-73
2021/11/01 03:30:57;;;;;;;8.27;7.40;;;13.60;89.20;;;;;;5077255;28;20279;-74
2021/11/01 03:33:29;;;;;;;7.50;5.23;;;13.50;89.20;;;;;;5078545;28;20506;-74
2021/11/01 03:35:57;;;;;;;12.07;6.87;;;13.50;89.40;;;;;;5056495;28;20220;-72
2021/11/01 03:38:26;;;;;;;5.33;5.00;;;13.50;89.50;;;;;;5061734;28;20213;-72
2021/11/01 03:40:53;;;;;;;18.20;8.53;;;13.50;89.60;;;;;;5078773;28;20231;-72
2021/11/01 03:43:29;;;;;;;9.70;7.37;;;13.50;89.80;;;;;;5079230;28;20221;-73
2021/11/01 03:45:59;;;;;;;7.17;5.57;;;13.40;89.80;;;;;;5062561;28;20588;-72
2021/11/01 03:48:30;;;;;;;7.57;6.17;;;13.40;89.90;;;;;;5056403;28;20211;-71
2021/11/01 03:53:44;;;;;;;3.87;3.63;;;13.40;90.10;;;;;;5047476;28;20537;-72
2021/11/01 03:56:11;;;;;;;8.50;5.83;;;13.40;90.20;;;;;;5078527;28;20222;-74
2021/11/01 03:58:38;;;;;;;9.77;5.90;;;13.40;90.30;;;;;;5078923;28;20214;-72
2021/11/01 04:01:06;;;;;;;8.30;4.87;;;13.30;90.30;;;;;;5078777;28;20227;-72
2021/11/01 04:03:33;;;;;;;15.63;7.70;;;13.30;90.40;;;;;;5078764;28;20216;-73
2021/11/01 04:06:03;;;;;;;6.63;5.13;;;13.30;90.40;;;;;;5060704;28;20667;-72
2021/11/01 04:08:31;;;;;;;14.80;8.13;;;13.30;90.50;;;;;;5074784;28;20201;-72
2021/11/01 04:10:58;;;;;;;4.03;3.73;;;13.30;90.50;;;;;;5077938;28;20213;-74
2021/11/01 04:13:25;;;;;;;5.53;4.83;;;13.30;90.60;;;;;;5077438;28;20313;-72
2021/11/01 04:16:09;;;;;;;12.10;5.07;;;13.30;90.70;;;;;;5076421;28;20213;-71
2021/11/01 04:18:50;;;;;;;4.80;4.33;;;13.20;90.80;;;;;;5074509;28;20237;-72
2021/11/01 04:21:18;;;;;;;11.23;7.00;;;13.20;90.90;;;;;;5060412;28;20226;-71
2021/11/01 04:23:45;;;;;;;16.47;7.23;;;13.20;91.30;;;;;;5055247;28;20218;-72
2021/11/01 04:26:15;;;;;;;11.00;6.77;;;13.20;91.10;;;;;;5059767;28;20237;-71
2021/11/01 04:28:42;;;;;;;15.00;7.27;;;13.20;91.10;;;;;;5078231;28;20210;-71
2021/11/01 04:31:13;;;;;;;13.77;6.50;;;13.20;91.10;;;;;;5076711;28;20220;-71
2021/11/01 04:33:42;;;;;;;7.40;5.67;;;13.30;91.10;;;;;;5058816;28;20217;-70
2021/11/01 04:36:10;;;;;;;9.23;8.03;;;13.20;91.10;;;;;;5042842;28;20221;-70
2021/11/01 04:44:17;;;;;;;11.27;6.60;;;13.20;91.10;;;;;;5076432;28;20209;-71
2021/11/01 04:55:03;;;;;;;11.17;8.13;;;13.20;91.20;;;;;;5073720;28;20283;-71
2021/11/01 04:57:31;;;;;;;4.07;3.73;;;13.30;91.30;;;;;;5057895;28;20214;-70
2021/11/01 04:59:58;;;;;;;5.40;4.33;;;13.30;91.50;;;;;;5075800;28;20210;-70
2021/11/01 05:02:27;;;;;;;11.23;5.60;;;13.30;91.30;;;;;;5057603;28;20319;-73
2021/11/01 05:04:54;;;;;;;8.07;5.93;;;13.30;91.30;;;;;;5057811;28;20628;-71
2021/11/01 05:07:23;;;;;;;7.97;4.03;;;13.30;91.30;;;;;;5057508;28;20384;-70
2021/11/01 05:10:37;;;;;;;12.50;6.50;;;13.30;91.30;;;;;;5057485;28;20224;-70
2021/11/01 05:12:42;;;;;;;14.83;7.80;;;13.30;91.30;;;;;;5067332;28;20244;-71
2021/11/01 05:15:24;;;;;;;8.53;5.83;;;13.30;91.30;;;;;;5075544;28;20217;-71
2021/11/01 05:20:35;;;;;;;9.63;5.63;;;13.30;91.30;;;;;;5075022;28;20221;-70
2021/11/01 05:23:11;;;;;;;8.70;5.80;;;13.30;91.30;;;;;;5054124;28;20209;-72
2021/11/01 05:26:01;;;;;;;4.53;4.13;;;13.30;91.40;;;;;;5057834;28;20235;-71
2021/11/01 05:28:47;;;;;;;6.73;4.10;;;13.30;91.50;;;;;;5072696;28;20221;-70
2021/11/01 05:31:18;;;;;;;4.93;4.50;;;13.30;91.50;;;;;;5054213;28;20218;-70
2021/11/01 05:36:20;;;;;;;10.33;7.60;;;13.20;91.70;;;;;;5075397;28;20213;-71
2021/11/01 05:38:49;;;;;;;6.53;4.63;;;13.20;91.70;;;;;;5046639;28;20559;-69
2021/11/01 05:41:17;;;;;;;9.10;7.27;;;13.20;91.70;;;;;;5076244;28;20320;-69
2021/11/01 05:43:45;;;;;;;4.83;4.10;;;13.20;91.70;;;;;;5077626;28;20602;-70
2021/11/01 05:46:14;;;;;;;14.67;7.83;;;13.20;91.80;;;;;;5075972;28;20592;-70
2021/11/01 05:48:53;;;;;;;11.90;4.90;;;13.20;91.80;;;;;;5076423;28;20225;-70
2021/11/01 05:51:23;;;;;;;13.63;5.40;;;13.20;91.90;;;;;;5055167;28;20228;-71
2021/11/01 05:53:54;;;;;;;13.47;3.97;;;13.20;91.80;;;;;;5056755;28;20213;-71
2021/11/01 06:02:10;;;;;;;9.07;5.23;;;13.20;91.80;;;;;;5042893;28;20236;-68
2021/11/01 06:07:37;;;;;;;9.10;5.33;;;13.20;91.90;;;;;;5074814;28;20241;-68
2021/11/01 06:15:27;;;;;;;5.97;4.87;;;13.10;92.10;;;;;;5076152;28;20220;-68
2021/11/01 06:17:56;;;;;;;6.13;5.53;;;13.10;92.20;;;;;;5071905;28;20213;-68
2021/11/01 06:20:28;;;;;;;7.17;6.40;;;13.00;92.20;;;;;;5075432;28;20217;-68
2021/11/01 06:22:56;;;;;;;7.87;4.37;;;13.10;92.30;;;;;;5076704;28;20667;-69
2021/11/01 06:25:25;;;;;;;5.67;5.13;;;13.00;92.30;;;;;;5058635;28;20226;-68
2021/11/01 06:27:54;;;;;;;5.73;5.20;;;13.00;92.40;;;;;;5058567;28;20230;-69
2021/11/01 06:30:30;;;;;;;14.50;9.80;;;13.00;92.40;;;;;;5053844;28;20243;-69
2021/11/01 06:33:12;;;;;;;7.23;5.07;;;13.00;92.40;;;;;;5059079;28;20248;-69
2021/11/01 06:44:20;;;;;;;6.07;5.17;;;13.10;92.50;;;;;;5073384;28;20247;-70
2021/11/01 06:52:53;;;;;;;10.57;7.60;;;13.10;92.50;;;;;;5078012;28;20217;-68
2021/11/01 06:55:33;;;;;;;14.60;4.70;;;13.10;92.60;;;;;;5073691;28;20220;-68
2021/11/01 07:15:15;;;;;;;16.97;8.83;;;13.10;92.70;;;;;;5078427;28;20237;-68
2021/11/01 07:17:55;;;;;;;13.93;3.33;;;13.20;92.70;;;;;;5074223;28;20298;-69
2021/11/01 08:38:05;;;;;;;3.77;2.97;;;13.20;93.30;;;;;;5053199;28;20305;-68
2021/11/01 08:46:11;;;;;;;6.73;6.23;;;13.20;93.30;;;;;;5056786;28;20552;-68
2021/11/01 08:51:38;;;;;;;7.00;6.40;;;13.20;93.40;;;;;;5075754;28;20214;-67
2021/11/01 09:05:21;;;;;;;13.27;5.30;;;13.20;93.60;;;;;;5076715;28;20228;-69
2021/11/01 09:08:06;;;;;;;3.13;2.97;;;13.20;93.60;;;;;;5059040;28;20252;-69
2021/11/01 09:10:58;;;;;;;8.10;5.07;;;13.20;93.70;;;;;;5058560;28;20213;-69
2021/11/01 09:19:34;;;;;;;15.07;4.00;;;13.20;93.90;;;;;;5076107;28;20556;-69
2021/11/01 09:24:40;;;;;;;5.63;3.40;;;13.30;94.00;;;;;;5074383;28;20213;-68
2021/11/01 09:27:14;;;;;;;4.53;3.10;;;13.30;94.00;;;;;;5055369;28;20232;-68
2021/11/01 09:43:16;;;;;;;4.03;2.73;;;13.50;94.00;;;;;;5077638;28;20632;-68
2021/11/01 09:45:46;;;;;;;5.80;3.47;;;13.50;94.00;;;;;;5078494;28;20237;-68
2021/11/01 09:48:15;;;;;;;6.27;5.70;;;13.50;94.00;;;;;;5058247;28;20677;-69
2021/11/01 09:50:43;;;;;;;2.97;2.87;;;13.50;94.10;;;;;;5078972;28;20226;-69
2021/11/01 09:53:21;;;;;;;5.83;5.10;;;13.50;94.00;;;;;;5076267;28;20600;-68
2021/11/01 10:01:22;;;;;;;2.23;2.13;;;13.60;94.10;;;;;;5057387;28;20217;-68
2021/11/01 10:03:52;;;;;;;4.93;4.53;;;13.60;94.20;;;;;;5074163;28;20281;-69
2021/11/01 10:06:23;;;;;;;7.53;5.10;;;13.60;94.30;;;;;;5047882;28;20221;-68
2021/11/01 10:08:53;;;;;;;13.60;2.90;;;13.60;94.60;;;;;;5056892;28;20682;-68
2021/11/01 10:11:27;;;;;;;5.43;4.03;;;13.70;94.30;;;;;;5073200;28;20213;-68
2021/11/01 10:14:03;;;;;;;15.47;4.47;;;13.70;94.30;;;;;;5056345;28;20220;-69
2021/11/01 10:19:40;;;;;;;4.33;4.03;;;13.70;94.30;;;;;;5071630;28;20320;-68
2021/11/01 10:22:24;;;;;;;8.23;4.40;;;13.70;94.30;;;;;;5068485;28;20216;-68
2021/11/01 10:24:56;;;;;;;9.60;8.80;;;13.70;94.20;;;;;;5056213;28;20631;-68
2021/11/01 10:27:31;;;;;;;8.10;4.87;;;13.80;94.30;;;;;;5069339;28;20573;-68
2021/11/01 10:30:09;;;;;;;7.87;4.47;;;13.80;94.30;;;;;;5054149;28;20292;-68
2021/11/01 10:32:45;;;;;;;4.73;4.30;;;13.80;94.30;;;;;;5049873;28;20214;-69
2021/11/01 10:35:23;;;;;;;7.13;5.97;;;13.80;94.40;;;;;;5071185;28;20296;-68
2021/11/01 10:38:25;;;;;;;7.73;4.80;;;13.80;94.30;;;;;;5048232;28;20330;-67
2021/11/01 10:41:20;;;;;;;7.60;6.07;;;13.80;94.30;;;;;;5049162;28;20668;-68
2021/11/01 10:44:02;;;;;;;9.07;4.90;;;13.80;94.30;;;;;;5049493;28;20218;-67
2021/11/01 10:58:05;;;;;;;5.20;4.60;;;13.90;94.40;;;;;;5067649;28;20337;-68
2021/11/01 11:14:31;;;;;;;4.63;4.30;;;13.90;94.60;;;;;;5068090;28;20225;-68
2021/11/01 11:33:40;;;;;;;3.23;2.90;;;14.10;94.50;;;;;;5071335;28;20221;-69
2021/11/01 11:50:44;;;;;;;3.40;3.20;;;14.20;94.80;;;;;;5050549;28;20847;-69
2021/11/01 11:53:21;;;;;;;1.27;1.23;;;14.20;94.80;;;;;;5036779;28;20210;-69
2021/11/01 11:56:08;;;;;;;4.63;4.23;;;14.20;94.80;;;;;;5033209;28;20301;-69
2021/11/01 11:58:47;;;;;;;4.50;3.97;;;14.30;94.80;;;;;;5033151;28;20218;-69
2021/11/01 12:01:28;;;;;;;7.17;2.97;;;14.30;94.80;;;;;;5052792;28;20703;-69
2021/11/01 12:04:03;;;;;;;6.97;4.17;;;14.30;94.90;;;;;;5049827;28;20218;-69
2021/11/01 12:06:51;;;;;;;4.80;4.43;;;14.30;95.00;;;;;;5053408;28;20225;-68
2021/11/01 12:09:23;;;;;;;8.10;5.10;;;14.30;95.00;;;;;;5034186;28;20237;-69
2021/11/01 12:17:29;;;;;;;3.03;2.73;;;14.40;95.20;;;;;;5052983;28;20202;-68
2021/11/01 12:20:05;;;;;;;2.57;2.37;;;14.40;95.20;;;;;;5038499;28;20220;-68
2021/11/01 12:22:36;;;;;;;4.37;3.67;;;14.50;95.20;;;;;;5048852;28;20225;-69
2021/11/01 12:25:07;;;;;;;9.67;3.70;;;14.50;95.20;;;;;;5035997;28;20214;-68
2021/11/01 12:27:37;;;;;;;3.50;1.77;;;14.50;95.20;;;;;;5035328;28;20548;-68
2021/11/01 12:30:07;;;;;;;4.50;4.10;;;14.50;95.20;;;;;;5035438;28;20453;-68
2021/11/01 12:32:40;;;;;;;4.67;3.43;;;14.50;95.30;;;;;;5049494;28;20214;-68
2021/11/01 12:37:48;;;;;;;4.53;3.77;;;14.50;95.30;;;;;;5054216;28;20225;-67
2021/11/01 12:57:00;;;;;;;2.30;2.20;;;14.60;95.70;;;;;;5053737;28;20242;-68
2021/11/01 12:59:40;;;;;;;4.57;4.13;;;14.60;95.70;;;;;;5034832;28;20244;-68
2021/11/01 13:02:33;;;;;;;3.07;2.83;;;14.60;95.70;;;;;;5053662;28;20589;-68
2021/11/01 13:05:08;;;;;;;3.60;3.30;;;14.60;95.70;;;;;;5037274;28;20218;-69
2021/11/01 13:07:57;;;;;;;1.57;1.50;;;14.60;95.70;;;;;;5035595;28;20222;-69
2021/11/01 13:10:38;;;;;;;1.33;1.30;;;14.70;95.80;;;;;;5050836;28;20229;-68
2021/11/01 13:19:10;;;;;;;2.93;1.30;;;14.70;96.10;;;;;;5049552;28;20248;-69
2021/11/01 13:21:58;;;;;;;3.43;3.23;;;14.70;95.80;;;;;;5051863;28;20216;-69
2021/11/01 13:24:43;;;;;;;3.33;3.03;;;14.70;95.80;;;;;;5048918;28;20560;-69
2021/11/01 13:28:03;;;;;;;3.87;3.57;;;14.80;95.90;;;;;;5030641;28;20217;-69
2021/11/01 13:38:39;;;;;;;2.20;1.87;;;14.80;95.90;;;;;;5050924;28;20643;-69
2021/11/01 13:41:18;;;;;;;2.10;1.97;;;14.90;96.00;;;;;;5032645;28;20272;-69
2021/11/01 13:43:45;;;;;;;2.07;1.87;;;14.90;96.00;;;;;;5046996;28;20221;-69
2021/11/01 13:46:14;;;;;;;2.40;2.30;;;14.90;96.00;;;;;;5056107;28;20307;-69
2021/11/01 13:48:41;;;;;;;2.23;2.13;;;14.90;96.00;;;;;;5053052;28;20288;-70
2021/11/01 13:51:14;;;;;;;2.63;2.43;;;15.00;96.00;;;;;;5052430;28;20217;-70
2021/11/01 13:54:02;;;;;;;5.30;2.73;;;15.00;96.00;;;;;;5053319;28;20236;-70
2021/11/01 13:59:25;;;;;;;4.10;1.83;;;15.00;96.00;;;;;;5068413;28;20221;-70
2021/11/01 14:31:55;;;;;;;3.57;3.27;;;14.70;96.00;;;;;;5065449;28;20670;-69
2021/11/01 15:39:13;;;;;;;2.93;2.67;;;15.10;96.70;;;;;;5075145;28;20218;-70
2021/11/01 16:15:52;;;;;;;3.20;2.90;;;15.50;96.90;;;;;;5073913;28;20230;-70
2021/11/01 16:18:13;;;;;;;6.60;1.83;;;15.60;96.90;;;;;;5070429;28;20240;-70
2021/11/01 16:20:42;;;;;;;4.87;2.97;;;15.50;96.90;;;;;;5055438;28;20228;-69
2021/11/01 16:25:38;;;;;;;6.07;2.13;;;15.60;96.90;;;;;;5072806;28;20225;-70
2021/11/01 16:28:06;;;;;;;3.37;2.23;;;15.60;96.90;;;;;;5073298;28;20225;-70
2021/11/01 16:30:34;;;;;;;5.10;3.13;;;15.60;96.90;;;;;;5056094;28;20577;-71
2021/11/01 16:33:06;;;;;;;2.60;2.37;;;15.60;96.90;;;;;;5056591;28;20666;-70
2021/11/01 16:35:42;;;;;;;3.40;3.10;;;15.70;96.90;;;;;;5054823;28;20217;-70
2021/11/01 16:38:24;;;;;;;2.43;2.23;;;15.70;96.90;;;;;;5051745;28;20205;-70
2021/11/01 16:40:53;;;;;;;1.43;1.23;;;15.70;96.90;;;;;;5072437;28;20202;-70
2021/11/01 16:43:24;;;;;;;2.13;2.03;;;15.70;96.90;;;;;;5055143;28;20291;-70
2021/11/01 16:45:53;;;;;;;2.20;2.00;;;15.70;96.90;;;;;;5054069;28;20245;-70
2021/11/01 16:48:22;;;;;;;4.03;1.07;;;15.80;96.90;;;;;;5072910;28;20205;-69
2021/11/01 16:50:54;;;;;;;4.37;1.77;;;15.80;96.80;;;;;;5053913;28;20267;-69
2021/11/01 16:53:22;;;;;;;1.80;1.70;;;15.70;96.70;;;;;;5072675;28;20211;-69
2021/11/01 16:55:53;;;;;;;1.13;1.03;;;15.70;96.50;;;;;;5068279;28;20224;-69
2021/11/01 16:58:29;;;;;;;0.87;0.67;;;15.60;96.30;;;;;;5055403;28;20202;-70
2021/11/01 17:01:08;;;;;;;0.57;0.57;;;15.40;95.80;;;;;;5046962;28;20542;-70
2021/11/01 17:03:40;;;;;;;0.33;0.33;;;15.20;95.30;;;;;;5070834;28;20206;-70
2021/11/01 17:06:22;;;;;;;0.80;0.80;;;14.90;95.00;;;;;;5055055;28;20607;-70
2021/11/01 17:22:39;;;;;;;0.30;0.30;;;13.60;95.00;;;;;;5071740;28;20210;-70
2021/11/01 17:25:33;;;;;;;0.93;0.93;;;13.50;95.10;;;;;;5069648;28;20618;-70
2021/11/01 17:28:25;;;;;;;0.97;0.97;;;13.30;95.10;;;;;;5068542;28;20209;-70
2021/11/01 17:31:12;;;;;;;0.13;0.13;;;13.10;95.30;;;;;;5069169;28;20577;-70
2021/11/01 18:41:00;;;;;;;0.20;0.20;;;13.10;96.90;;;;;;5068166;28;20220;-69
2021/11/01 18:51:39;;;;;;;0.10;0.10;;;13.20;96.90;;;;;;5070862;28;20213;-70
2021/11/01 18:54:12;;;;;;;0.20;0.20;;;13.20;96.90;;;;;;5076036;28;20217;-70
2021/11/01 18:56:41;;;;;;;0.20;0.20;;;13.20;96.90;;;;;;5075020;28;20247;-69
2021/11/01 18:59:10;;;;;;;0.27;0.27;;;13.20;97.00;;;;;;5076012;28;20220;-69
2021/11/01 19:01:44;;;;;;;0.10;0.10;;;13.20;97.00;;;;;;5058169;28;20683;-69
2021/11/01 19:04:21;;;;;;;0.40;0.13;;;13.30;97.00;;;;;;5075256;28;20308;-70
2021/11/01 19:07:09;;;;;;;0.57;0.57;;;13.30;97.00;;;;;;5054925;28;20247;-68
2021/11/01 20:11:36;;;;;;;0.97;0.97;;;13.10;96.00;;;;;;5052944;28;20321;-69
2021/11/01 21:27:03;;;;;;;0.20;0.20;;;13.00;95.40;;;;;;5071754;28;20222;-69
2021/11/01 21:29:32;;;;;;;0.30;0.30;;;13.00;95.40;;;;;;5072055;28;20565;-69
2021/11/01 21:32:00;;;;;;;0.87;0.87;;;13.00;95.30;;;;;;5068282;28;20551;-69
2021/11/01 21:34:31;;;;;;;0.40;0.40;;;13.10;95.30;;;;;;5073947;28;20263;-69
2021/11/01 21:36:59;;;;;;;0.47;0.47;;;13.10;95.30;;;;;;5054511;28;20213;-70
2021/11/01 21:39:27;;;;;;;0.23;0.23;;;13.10;95.30;;;;;;5054797;28;20559;-69
2021/11/01 21:41:54;;;;;;;0.87;0.80;;;13.10;95.20;;;;;;5071523;28;20220;-69
2021/11/01 21:44:22;;;;;;;0.43;0.43;;;13.10;95.20;;;;;;5054985;28;20467;-69
2021/11/01 21:46:49;;;;;;;0.17;0.17;;;13.10;95.20;;;;;;5072366;28;20241;-69
2021/11/01 21:49:17;;;;;;;0.30;0.30;;;13.10;95.10;;;;;;5072233;28;20228;-69
2021/11/01 21:51:45;;;;;;;1.00;1.00;;;13.10;95.10;;;;;;5072238;28;20566;-69
2021/11/01 21:56:42;;;;;;;0.10;0.10;;;13.10;95.00;;;;;;5071876;28;20205;-69
2021/11/01 21:59:23;;;;;;;2.17;1.03;;;13.10;94.90;;;;;;5072368;28;20574;-68
2021/11/01 22:18:26;;;;;;;0.10;0.10;;;13.10;94.70;;;;;;5066991;28;20304;-69
2021/11/01 22:20:47;;;;;;;0.63;0.63;;;13.10;94.70;;;;;;5067476;28;20213;-69
2021/11/01 22:23:30;;;;;;;0.67;0.43;;;13.10;94.70;;;;;;5070494;28;20213;-68
2021/11/01 22:42:37;;;;;;;0.73;0.73;;;13.10;94.40;;;;;;5071210;28;20623;-68
2021/11/01 22:45:19;;;;;;;0.70;0.70;;;13.10;94.40;;;;;;5067257;28;20214;-69
2021/11/01 22:55:57;;;;;;;1.00;0.63;;;13.10;94.30;;;;;;5069786;28;20213;-69
2021/11/01 22:58:25;;;;;;;1.33;1.23;;;13.10;94.20;;;;;;5051870;28;20267;-69
2021/11/01 23:00:58;;;;;;;0.17;0.17;;;13.10;94.20;;;;;;5070753;28;20217;-69
2021/11/01 23:03:42;;;;;;;0.20;0.20;;;13.00;94.20;;;;;;5053401;28;20218;-69
2021/11/01 23:06:20;;;;;;;0.20;0.20;;;13.00;94.10;;;;;;5049151;28;20205;-69
2021/11/01 23:33:38;;;;;;;0.33;0.33;;;12.50;94.10;;;;;;5073722;28;20304;-69
2021/11/01 23:36:07;;;;;;;0.30;0.30;;;12.50;94.10;;;;;;5057914;28;20689;-69
2021/11/01 23:38:35;;;;;;;0.40;0.40;;;12.50;94.10;;;;;;5054499;28;20550;-69
2021/11/01 23:41:03;;;;;;;0.20;0.20;;;12.40;94.10;;;;;;5058250;28;20219;-69
2021/11/01 23:43:31;;;;;;;0.30;0.30;;;12.40;94.10;;;;;;5058313;28;20304;-69
2021/11/01 23:45:58;;;;;;;0.20;0.20;;;12.30;94.10;;;;;;5057288;28;20272;-69
2021/11/01 23:48:25;;;;;;;4.47;0.77;;;12.30;94.10;;;;;;5059555;28;20233;-69
2021/11/01 23:50:54;;;;;;;0.10;0.10;;;12.30;94.20;;;;;;5058463;28;20707;-69
2021/11/01 23:53:40;;;;;;;0.40;0.40;;;12.30;94.20;;;;;;5057730;28;20205;-69
2021/11/01 23:56:08;;;;;;;0.80;0.80;;;12.30;94.20;;;;;;5057143;28;20210;-69
2021/11/01 23:58:37;;;;;;;0.57;0.57;;;12.30;94.20;;;;;;5075120;28;20213;-69
